Aviation Digital Data Service (ADDS)

Output produced by METARs form (1710 UTC 29 May 2017)
found at http://www.aviationweather.gov/adds/metars/
 
TAF TTPP 291600Z 2918/3018 10015KT 9999 VCSH SCT016 
     TEMPO 2918/2922 5000 SHRA BKN014 
     BECMG 2923/3001 10005KT SCT016 
     PROB40 
     TEMPO 3006/3010 7000 SHRA 
     BECMG 3011/3013 11016KT SCT018
       
TAF TTCP 291600Z 2918/3018 11018KT 9999 FEW020 
     TEMPO 2918/2922 5000 SHRA SCT016 
     BECMG 2923/3001 10005KT FEW016 
     PROB40 
     TEMPO 3006/3010 7000 SHRA 
     BECMG 3011/3013 11018KT SCT018